sensor_id;sensor_type;location;lat;lon;timestamp;P1;durP1;ratioP1;P2;durP2;ratioP2
20814;SDS011;10568;48.176;16.316;2022-09-24T00:03:59;3.60;;;2.50;;
20814;SDS011;10568;48.176;16.316;2022-09-24T00:06:27;2.77;;;2.20;;
20814;SDS011;10568;48.176;16.316;2022-09-24T00:08:55;3.80;;;2.50;;
20814;SDS011;10568;48.176;16.316;2022-09-24T00:11:23;2.43;;;2.20;;
20814;SDS011;10568;48.176;16.316;2022-09-24T00:13:50;3.07;;;2.17;;
20814;SDS011;10568;48.176;16.316;2022-09-24T00:16:17;3.97;;;2.13;;
20814;SDS011;10568;48.176;16.316;2022-09-24T00:18:44;3.73;;;2.67;;
20814;SDS011;10568;48.176;16.316;2022-09-24T00:23:41;3.60;;;2.40;;
20814;SDS011;10568;48.176;16.316;2022-09-24T00:26:11;4.30;;;2.40;;
20814;SDS011;10568;48.176;16.316;2022-09-24T00:28:56;4.43;;;2.30;;
20814;SDS011;10568;48.176;16.316;2022-09-24T00:31:22;3.33;;;2.33;;
20814;SDS011;10568;48.176;16.316;2022-09-24T00:33:48;3.20;;;2.27;;
20814;SDS011;10568;48.176;16.316;2022-09-24T00:36:16;3.77;;;2.40;;
20814;SDS011;10568;48.176;16.316;2022-09-24T00:38:44;2.13;;;1.80;;
20814;SDS011;10568;48.176;16.316;2022-09-24T00:41:14;3.33;;;2.07;;
20814;SDS011;10568;48.176;16.316;2022-09-24T00:43:40;3.30;;;2.20;;
20814;SDS011;10568;48.176;16.316;2022-09-24T00:46:10;3.07;;;2.20;;
20814;SDS011;10568;48.176;16.316;2022-09-24T00:48:38;3.10;;;2.33;;
20814;SDS011;10568;48.176;16.316;2022-09-24T00:51:06;3.83;;;2.50;;
20814;SDS011;10568;48.176;16.316;2022-09-24T00:53:33;2.80;;;2.00;;
20814;SDS011;10568;48.176;16.316;2022-09-24T00:55:59;8.97;;;2.60;;
20814;SDS011;10568;48.176;16.316;2022-09-24T00:58:27;2.67;;;2.20;;
20814;SDS011;10568;48.176;16.316;2022-09-24T01:01:01;5.07;;;2.10;;
20814;SDS011;10568;48.176;16.316;2022-09-24T01:03:29;5.03;;;2.27;;
20814;SDS011;10568;48.176;16.316;2022-09-24T01:06:04;3.90;;;2.20;;
20814;SDS011;10568;48.176;16.316;2022-09-24T01:08:29;2.33;;;1.97;;
20814;SDS011;10568;48.176;16.316;2022-09-24T01:11:00;3.17;;;2.10;;
20814;SDS011;10568;48.176;16.316;2022-09-24T01:14:12;3.00;;;2.17;;
20814;SDS011;10568;48.176;16.316;2022-09-24T01:22:56;2.40;;;2.13;;
20814;SDS011;10568;48.176;16.316;2022-09-24T01:32:18;3.17;;;2.20;;
20814;SDS011;10568;48.176;16.316;2022-09-24T01:34:49;3.37;;;2.30;;
20814;SDS011;10568;48.176;16.316;2022-09-24T01:37:20;4.33;;;1.93;;
20814;SDS011;10568;48.176;16.316;2022-09-24T01:39:49;3.67;;;2.30;;
20814;SDS011;10568;48.176;16.316;2022-09-24T01:42:18;4.27;;;2.50;;
20814;SDS011;10568;48.176;16.316;2022-09-24T01:44:46;4.33;;;2.33;;
20814;SDS011;10568;48.176;16.316;2022-09-24T01:47:15;2.50;;;2.07;;
20814;SDS011;10568;48.176;16.316;2022-09-24T01:50:14;3.57;;;1.87;;
20814;SDS011;10568;48.176;16.316;2022-09-24T01:52:44;2.00;;;1.50;;
20814;SDS011;10568;48.176;16.316;2022-09-24T01:55:36;2.67;;;1.83;;
20814;SDS011;10568;48.176;16.316;2022-09-24T01:58:09;2.23;;;2.03;;
20814;SDS011;10568;48.176;16.316;2022-09-24T02:00:38;6.20;;;2.13;;
20814;SDS011;10568;48.176;16.316;2022-09-24T02:03:44;2.57;;;2.10;;
20814;SDS011;10568;48.176;16.316;2022-09-24T02:08:45;2.93;;;1.90;;
20814;SDS011;10568;48.176;16.316;2022-09-24T02:16:48;3.50;;;2.40;;
20814;SDS011;10568;48.176;16.316;2022-09-24T02:19:16;5.37;;;2.13;;
20814;SDS011;10568;48.176;16.316;2022-09-24T02:21:45;2.83;;;2.03;;
20814;SDS011;10568;48.176;16.316;2022-09-24T02:24:16;2.80;;;2.13;;
20814;SDS011;10568;48.176;16.316;2022-09-24T02:27:06;2.63;;;1.70;;
20814;SDS011;10568;48.176;16.316;2022-09-24T02:29:32;2.33;;;2.10;;
20814;SDS011;10568;48.176;16.316;2022-09-24T02:31:58;2.77;;;1.80;;
20814;SDS011;10568;48.176;16.316;2022-09-24T02:34:45;2.47;;;2.13;;
20814;SDS011;10568;48.176;16.316;2022-09-24T02:37:14;2.87;;;2.10;;
20814;SDS011;10568;48.176;16.316;2022-09-24T02:39:41;2.30;;;1.90;;
20814;SDS011;10568;48.176;16.316;2022-09-24T02:42:08;4.23;;;2.03;;
20814;SDS011;10568;48.176;16.316;2022-09-24T02:44:35;2.17;;;1.70;;
20814;SDS011;10568;48.176;16.316;2022-09-24T02:47:02;3.03;;;1.83;;
20814;SDS011;10568;48.176;16.316;2022-09-24T02:49:28;3.80;;;2.23;;
20814;SDS011;10568;48.176;16.316;2022-09-24T02:51:54;2.50;;;2.20;;
20814;SDS011;10568;48.176;16.316;2022-09-24T02:54:21;2.37;;;2.10;;
20814;SDS011;10568;48.176;16.316;2022-09-24T02:56:47;3.33;;;2.17;;
20814;SDS011;10568;48.176;16.316;2022-09-24T02:59:12;2.50;;;1.80;;
20814;SDS011;10568;48.176;16.316;2022-09-24T03:01:38;2.83;;;2.20;;
20814;SDS011;10568;48.176;16.316;2022-09-24T03:04:04;2.80;;;2.20;;
20814;SDS011;10568;48.176;16.316;2022-09-24T03:06:30;2.30;;;1.83;;
20814;SDS011;10568;48.176;16.316;2022-09-24T03:08:56;3.27;;;2.20;;
20814;SDS011;10568;48.176;16.316;2022-09-24T03:11:22;3.30;;;2.10;;
20814;SDS011;10568;48.176;16.316;2022-09-24T03:13:48;3.27;;;2.10;;
20814;SDS011;10568;48.176;16.316;2022-09-24T03:16:16;2.47;;;2.10;;
20814;SDS011;10568;48.176;16.316;2022-09-24T03:21:39;2.83;;;1.83;;
20814;SDS011;10568;48.176;16.316;2022-09-24T03:24:05;2.77;;;2.07;;
20814;SDS011;10568;48.176;16.316;2022-09-24T03:26:30;3.13;;;2.30;;
20814;SDS011;10568;48.176;16.316;2022-09-24T03:28:57;2.07;;;1.73;;
20814;SDS011;10568;48.176;16.316;2022-09-24T03:31:23;2.43;;;2.03;;
20814;SDS011;10568;48.176;16.316;2022-09-24T03:33:48;3.17;;;2.20;;
20814;SDS011;10568;48.176;16.316;2022-09-24T03:36:21;3.57;;;1.97;;
20814;SDS011;10568;48.176;16.316;2022-09-24T03:38:50;4.40;;;2.23;;
20814;SDS011;10568;48.176;16.316;2022-09-24T03:41:19;3.60;;;2.27;;
20814;SDS011;10568;48.176;16.316;2022-09-24T03:43:45;2.67;;;2.10;;
20814;SDS011;10568;48.176;16.316;2022-09-24T03:46:11;2.23;;;2.00;;
20814;SDS011;10568;48.176;16.316;2022-09-24T03:48:37;3.93;;;2.00;;
20814;SDS011;10568;48.176;16.316;2022-09-24T03:51:08;3.83;;;1.90;;
20814;SDS011;10568;48.176;16.316;2022-09-24T03:53:36;3.73;;;2.03;;
20814;SDS011;10568;48.176;16.316;2022-09-24T03:56:03;2.70;;;2.03;;
20814;SDS011;10568;48.176;16.316;2022-09-24T03:58:30;2.67;;;1.90;;
20814;SDS011;10568;48.176;16.316;2022-09-24T04:01:00;2.47;;;1.73;;
20814;SDS011;10568;48.176;16.316;2022-09-24T04:03:26;3.43;;;2.13;;
20814;SDS011;10568;48.176;16.316;2022-09-24T04:05:51;3.00;;;2.10;;
20814;SDS011;10568;48.176;16.316;2022-09-24T04:08:20;3.50;;;2.33;;
20814;SDS011;10568;48.176;16.316;2022-09-24T04:10:47;2.53;;;2.33;;
20814;SDS011;10568;48.176;16.316;2022-09-24T04:13:14;3.97;;;2.27;;
20814;SDS011;10568;48.176;16.316;2022-09-24T04:15:41;3.13;;;2.10;;
20814;SDS011;10568;48.176;16.316;2022-09-24T04:18:07;2.43;;;2.13;;
20814;SDS011;10568;48.176;16.316;2022-09-24T04:20:33;2.50;;;1.83;;
20814;SDS011;10568;48.176;16.316;2022-09-24T04:22:59;2.70;;;2.00;;
20814;SDS011;10568;48.176;16.316;2022-09-24T04:25:29;3.23;;;2.17;;
20814;SDS011;10568;48.176;16.316;2022-09-24T04:27:57;2.30;;;2.07;;
20814;SDS011;10568;48.176;16.316;2022-09-24T04:30:25;4.33;;;2.10;;
20814;SDS011;10568;48.176;16.316;2022-09-24T04:32:51;3.20;;;2.07;;
20814;SDS011;10568;48.176;16.316;2022-09-24T04:35:18;3.57;;;2.00;;
20814;SDS011;10568;48.176;16.316;2022-09-24T04:37:45;3.13;;;1.90;;
20814;SDS011;10568;48.176;16.316;2022-09-24T04:40:12;3.17;;;2.10;;
20814;SDS011;10568;48.176;16.316;2022-09-24T04:42:38;4.47;;;2.20;;
20814;SDS011;10568;48.176;16.316;2022-09-24T04:45:05;3.70;;;2.10;;
20814;SDS011;10568;48.176;16.316;2022-09-24T04:47:32;2.00;;;1.80;;
20814;SDS011;10568;48.176;16.316;2022-09-24T04:49:59;2.63;;;1.90;;
20814;SDS011;10568;48.176;16.316;2022-09-24T04:52:26;2.70;;;2.10;;
20814;SDS011;10568;48.176;16.316;2022-09-24T04:54:54;2.03;;;1.83;;
20814;SDS011;10568;48.176;16.316;2022-09-24T04:57:22;2.67;;;2.17;;
20814;SDS011;10568;48.176;16.316;2022-09-24T04:59:48;3.17;;;2.13;;
20814;SDS011;10568;48.176;16.316;2022-09-24T05:02:14;2.77;;;1.73;;
20814;SDS011;10568;48.176;16.316;2022-09-24T05:04:41;3.07;;;2.07;;
20814;SDS011;10568;48.176;16.316;2022-09-24T05:07:08;3.57;;;2.20;;
20814;SDS011;10568;48.176;16.316;2022-09-24T05:09:34;2.03;;;1.73;;
20814;SDS011;10568;48.176;16.316;2022-09-24T05:12:00;4.07;;;2.00;;
20814;SDS011;10568;48.176;16.316;2022-09-24T05:14:26;3.77;;;2.17;;
20814;SDS011;10568;48.176;16.316;2022-09-24T05:16:52;2.47;;;2.10;;
20814;SDS011;10568;48.176;16.316;2022-09-24T05:19:18;2.87;;;2.13;;
20814;SDS011;10568;48.176;16.316;2022-09-24T05:21:44;2.20;;;1.80;;
20814;SDS011;10568;48.176;16.316;2022-09-24T05:24:10;4.93;;;2.30;;
20814;SDS011;10568;48.176;16.316;2022-09-24T05:26:36;3.13;;;2.37;;
20814;SDS011;10568;48.176;16.316;2022-09-24T05:29:20;2.37;;;2.13;;
20814;SDS011;10568;48.176;16.316;2022-09-24T05:34:53;2.77;;;2.10;;
20814;SDS011;10568;48.176;16.316;2022-09-24T05:37:18;2.17;;;1.80;;
20814;SDS011;10568;48.176;16.316;2022-09-24T05:39:44;3.07;;;2.17;;
20814;SDS011;10568;48.176;16.316;2022-09-24T05:42:10;3.00;;;2.33;;
20814;SDS011;10568;48.176;16.316;2022-09-24T05:44:39;4.17;;;2.33;;
20814;SDS011;10568;48.176;16.316;2022-09-24T05:47:07;3.27;;;1.97;;
20814;SDS011;10568;48.176;16.316;2022-09-24T05:49:33;4.13;;;2.70;;
20814;SDS011;10568;48.176;16.316;2022-09-24T05:51:59;4.80;;;3.33;;
20814;SDS011;10568;48.176;16.316;2022-09-24T05:54:25;3.87;;;2.90;;
20814;SDS011;10568;48.176;16.316;2022-09-24T05:56:51;7.97;;;3.90;;
20814;SDS011;10568;48.176;16.316;2022-09-24T05:59:17;7.80;;;3.53;;
20814;SDS011;10568;48.176;16.316;2022-09-24T06:01:43;3.20;;;2.47;;
20814;SDS011;10568;48.176;16.316;2022-09-24T06:04:09;6.13;;;3.43;;
20814;SDS011;10568;48.176;16.316;2022-09-24T06:06:36;5.60;;;3.40;;
20814;SDS011;10568;48.176;16.316;2022-09-24T06:09:02;3.67;;;2.77;;
20814;SDS011;10568;48.176;16.316;2022-09-24T06:11:31;4.80;;;2.93;;
20814;SDS011;10568;48.176;16.316;2022-09-24T06:13:59;2.87;;;2.47;;
20814;SDS011;10568;48.176;16.316;2022-09-24T06:19:56;3.43;;;2.67;;
20814;SDS011;10568;48.176;16.316;2022-09-24T06:22:22;4.30;;;2.20;;
20814;SDS011;10568;48.176;16.316;2022-09-24T06:24:48;2.33;;;2.13;;
20814;SDS011;10568;48.176;16.316;2022-09-24T06:27:15;3.70;;;2.63;;
20814;SDS011;10568;48.176;16.316;2022-09-24T06:29:41;4.63;;;2.97;;
20814;SDS011;10568;48.176;16.316;2022-09-24T06:32:06;5.77;;;3.60;;
20814;SDS011;10568;48.176;16.316;2022-09-24T06:34:33;5.27;;;3.30;;
20814;SDS011;10568;48.176;16.316;2022-09-24T06:36:59;4.20;;;3.60;;
20814;SDS011;10568;48.176;16.316;2022-09-24T06:39:25;5.27;;;3.30;;
20814;SDS011;10568;48.176;16.316;2022-09-24T06:41:52;5.33;;;3.20;;
20814;SDS011;10568;48.176;16.316;2022-09-24T06:44:18;4.73;;;3.33;;
20814;SDS011;10568;48.176;16.316;2022-09-24T06:46:44;4.47;;;3.60;;
20814;SDS011;10568;48.176;16.316;2022-09-24T06:49:10;5.90;;;3.77;;
20814;SDS011;10568;48.176;16.316;2022-09-24T06:51:36;5.60;;;3.97;;
20814;SDS011;10568;48.176;16.316;2022-09-24T06:54:03;7.47;;;4.17;;
20814;SDS011;10568;48.176;16.316;2022-09-24T06:56:28;5.97;;;4.17;;
20814;SDS011;10568;48.176;16.316;2022-09-24T06:58:55;6.13;;;4.07;;
20814;SDS011;10568;48.176;16.316;2022-09-24T07:01:21;5.50;;;3.80;;
20814;SDS011;10568;48.176;16.316;2022-09-24T07:03:47;6.00;;;4.47;;
20814;SDS011;10568;48.176;16.316;2022-09-24T07:06:12;5.20;;;3.93;;
20814;SDS011;10568;48.176;16.316;2022-09-24T07:08:38;7.57;;;4.23;;
20814;SDS011;10568;48.176;16.316;2022-09-24T07:11:05;7.33;;;4.80;;
20814;SDS011;10568;48.176;16.316;2022-09-24T07:13:31;6.47;;;4.27;;
20814;SDS011;10568;48.176;16.316;2022-09-24T07:15:57;6.07;;;4.50;;
20814;SDS011;10568;48.176;16.316;2022-09-24T07:18:25;7.93;;;4.37;;
20814;SDS011;10568;48.176;16.316;2022-09-24T07:20:54;7.33;;;4.53;;
20814;SDS011;10568;48.176;16.316;2022-09-24T07:23:20;7.20;;;4.50;;
20814;SDS011;10568;48.176;16.316;2022-09-24T07:25:48;7.27;;;4.60;;
20814;SDS011;10568;48.176;16.316;2022-09-24T07:28:15;7.30;;;4.33;;
20814;SDS011;10568;48.176;16.316;2022-09-24T07:30:43;6.70;;;4.93;;
20814;SDS011;10568;48.176;16.316;2022-09-24T07:33:09;7.53;;;4.37;;
20814;SDS011;10568;48.176;16.316;2022-09-24T07:35:38;5.17;;;4.50;;
20814;SDS011;10568;48.176;16.316;2022-09-24T07:38:05;7.60;;;4.80;;
20814;SDS011;10568;48.176;16.316;2022-09-24T07:40:35;5.77;;;4.40;;
20814;SDS011;10568;48.176;16.316;2022-09-24T07:43:01;9.10;;;5.00;;
20814;SDS011;10568;48.176;16.316;2022-09-24T07:45:28;5.93;;;4.80;;
20814;SDS011;10568;48.176;16.316;2022-09-24T07:47:56;7.10;;;4.77;;
20814;SDS011;10568;48.176;16.316;2022-09-24T07:50:23;7.93;;;5.17;;
20814;SDS011;10568;48.176;16.316;2022-09-24T07:52:49;7.00;;;5.30;;
20814;SDS011;10568;48.176;16.316;2022-09-24T07:55:15;6.77;;;4.80;;
20814;SDS011;10568;48.176;16.316;2022-09-24T07:57:45;7.87;;;5.20;;
20814;SDS011;10568;48.176;16.316;2022-09-24T08:00:12;7.60;;;5.13;;
20814;SDS011;10568;48.176;16.316;2022-09-24T08:02:39;7.23;;;4.90;;
20814;SDS011;10568;48.176;16.316;2022-09-24T08:05:04;6.10;;;4.73;;
20814;SDS011;10568;48.176;16.316;2022-09-24T08:07:31;7.07;;;5.30;;
20814;SDS011;10568;48.176;16.316;2022-09-24T08:09:56;7.87;;;5.17;;
20814;SDS011;10568;48.176;16.316;2022-09-24T08:12:23;8.53;;;5.07;;
20814;SDS011;10568;48.176;16.316;2022-09-24T08:14:51;6.67;;;4.80;;
20814;SDS011;10568;48.176;16.316;2022-09-24T08:17:18;6.50;;;4.30;;
20814;SDS011;10568;48.176;16.316;2022-09-24T08:19:44;7.57;;;4.83;;
20814;SDS011;10568;48.176;16.316;2022-09-24T08:22:11;7.40;;;5.87;;
20814;SDS011;10568;48.176;16.316;2022-09-24T08:24:38;6.47;;;4.50;;
20814;SDS011;10568;48.176;16.316;2022-09-24T08:27:06;6.17;;;4.10;;
20814;SDS011;10568;48.176;16.316;2022-09-24T08:29:32;8.40;;;4.67;;
20814;SDS011;10568;48.176;16.316;2022-09-24T08:31:58;7.23;;;4.27;;
20814;SDS011;10568;48.176;16.316;2022-09-24T08:34:25;5.80;;;4.70;;
20814;SDS011;10568;48.176;16.316;2022-09-24T08:36:51;6.93;;;4.40;;
20814;SDS011;10568;48.176;16.316;2022-09-24T08:39:16;5.53;;;4.50;;
20814;SDS011;10568;48.176;16.316;2022-09-24T08:41:51;7.23;;;5.13;;
20814;SDS011;10568;48.176;16.316;2022-09-24T08:44:56;8.23;;;4.63;;
20814;SDS011;10568;48.176;16.316;2022-09-24T08:50:24;7.57;;;4.63;;
20814;SDS011;10568;48.176;16.316;2022-09-24T08:55:38;5.27;;;4.30;;
20814;SDS011;10568;48.176;16.316;2022-09-24T08:58:21;6.57;;;4.30;;
20814;SDS011;10568;48.176;16.316;2022-09-24T09:03:45;6.60;;;5.47;;
20814;SDS011;10568;48.176;16.316;2022-09-24T09:06:39;6.77;;;4.90;;
20814;SDS011;10568;48.176;16.316;2022-09-24T09:09:21;7.83;;;5.77;;
20814;SDS011;10568;48.176;16.316;2022-09-24T09:11:50;7.90;;;6.20;;
20814;SDS011;10568;48.176;16.316;2022-09-24T09:14:45;6.53;;;5.27;;
20814;SDS011;10568;48.176;16.316;2022-09-24T09:20:45;7.43;;;5.87;;
20814;SDS011;10568;48.176;16.316;2022-09-24T09:23:17;8.13;;;5.97;;
20814;SDS011;10568;48.176;16.316;2022-09-24T09:25:55;9.33;;;6.50;;
20814;SDS011;10568;48.176;16.316;2022-09-24T09:28:23;8.13;;;6.53;;
20814;SDS011;10568;48.176;16.316;2022-09-24T09:41:40;8.30;;;6.53;;
20814;SDS011;10568;48.176;16.316;2022-09-24T09:47:30;7.33;;;5.77;;
20814;SDS011;10568;48.176;16.316;2022-09-24T09:50:16;7.07;;;5.77;;
20814;SDS011;10568;48.176;16.316;2022-09-24T09:52:46;8.60;;;6.27;;
20814;SDS011;10568;48.176;16.316;2022-09-24T09:55:23;9.03;;;6.47;;
20814;SDS011;10568;48.176;16.316;2022-09-24T09:57:51;7.20;;;5.77;;
20814;SDS011;10568;48.176;16.316;2022-09-24T10:00:25;9.27;;;6.63;;
20814;SDS011;10568;48.176;16.316;2022-09-24T10:02:57;7.07;;;5.80;;
20814;SDS011;10568;48.176;16.316;2022-09-24T10:05:23;8.53;;;5.93;;
20814;SDS011;10568;48.176;16.316;2022-09-24T10:07:53;9.90;;;6.43;;
20814;SDS011;10568;48.176;16.316;2022-09-24T10:10:23;10.33;;;7.30;;
20814;SDS011;10568;48.176;16.316;2022-09-24T10:13:12;7.73;;;6.40;;
20814;SDS011;10568;48.176;16.316;2022-09-24T10:18:16;9.93;;;7.13;;
20814;SDS011;10568;48.176;16.316;2022-09-24T10:21:23;8.93;;;6.40;;
20814;SDS011;10568;48.176;16.316;2022-09-24T10:23:59;8.37;;;6.27;;
20814;SDS011;10568;48.176;16.316;2022-09-24T10:26:36;9.03;;;5.83;;
20814;SDS011;10568;48.176;16.316;2022-09-24T10:29:03;7.53;;;5.53;;
20814;SDS011;10568;48.176;16.316;2022-09-24T10:31:49;8.43;;;6.17;;
20814;SDS011;10568;48.176;16.316;2022-09-24T10:34:17;8.77;;;6.20;;
20814;SDS011;10568;48.176;16.316;2022-09-24T10:37:02;9.13;;;6.80;;
20814;SDS011;10568;48.176;16.316;2022-09-24T10:39:36;8.43;;;6.50;;
20814;SDS011;10568;48.176;16.316;2022-09-24T10:42:03;8.07;;;5.57;;
20814;SDS011;10568;48.176;16.316;2022-09-24T10:44:35;8.53;;;5.60;;
20814;SDS011;10568;48.176;16.316;2022-09-24T11:09:54;7.00;;;5.50;;
20814;SDS011;10568;48.176;16.316;2022-09-24T11:12:38;6.67;;;5.60;;
20814;SDS011;10568;48.176;16.316;2022-09-24T11:18:16;6.50;;;5.00;;
20814;SDS011;10568;48.176;16.316;2022-09-24T11:26:43;8.47;;;5.83;;
20814;SDS011;10568;48.176;16.316;2022-09-24T11:32:17;7.03;;;5.43;;
20814;SDS011;10568;48.176;16.316;2022-09-24T11:35:31;7.43;;;5.70;;
20814;SDS011;10568;48.176;16.316;2022-09-24T11:51:48;6.17;;;5.00;;
20814;SDS011;10568;48.176;16.316;2022-09-24T11:57:10;8.05;;;5.07;;
20814;SDS011;10568;48.176;16.316;2022-09-24T11:59:51;5.97;;;5.15;;
20814;SDS011;10568;48.176;16.316;2022-09-24T12:02:29;6.40;;;5.03;;
20814;SDS011;10568;48.176;16.316;2022-09-24T12:05:04;6.90;;;4.93;;
20814;SDS011;10568;48.176;16.316;2022-09-24T12:07:36;7.65;;;5.13;;
20814;SDS011;10568;48.176;16.316;2022-09-24T12:13:10;6.10;;;4.63;;
20814;SDS011;10568;48.176;16.316;2022-09-24T12:15:45;5.75;;;4.43;;
20814;SDS011;10568;48.176;16.316;2022-09-24T12:18:22;5.88;;;4.53;;
20814;SDS011;10568;48.176;16.316;2022-09-24T12:20:54;5.88;;;4.35;;
20814;SDS011;10568;48.176;16.316;2022-09-24T12:23:26;5.85;;;4.28;;
20814;SDS011;10568;48.176;16.316;2022-09-24T12:25:59;5.15;;;4.03;;
20814;SDS011;10568;48.176;16.316;2022-09-24T12:28:32;6.82;;;4.55;;
20814;SDS011;10568;48.176;16.316;2022-09-24T12:31:27;7.13;;;4.22;;
20814;SDS011;10568;48.176;16.316;2022-09-24T12:34:35;5.90;;;3.90;;
20814;SDS011;10568;48.176;16.316;2022-09-24T12:37:06;5.80;;;4.35;;
20814;SDS011;10568;48.176;16.316;2022-09-24T12:39:44;6.57;;;4.63;;
20814;SDS011;10568;48.176;16.316;2022-09-24T12:42:15;4.55;;;3.78;;
20814;SDS011;10568;48.176;16.316;2022-09-24T12:44:45;5.55;;;4.10;;
20814;SDS011;10568;48.176;16.316;2022-09-24T12:47:20;4.93;;;4.03;;
20814;SDS011;10568;48.176;16.316;2022-09-24T12:49:59;6.28;;;4.22;;
20814;SDS011;10568;48.176;16.316;2022-09-24T12:52:30;4.82;;;4.15;;
20814;SDS011;10568;48.176;16.316;2022-09-24T12:55:20;5.07;;;3.50;;
20814;SDS011;10568;48.176;16.316;2022-09-24T13:00:40;5.30;;;3.72;;
20814;SDS011;10568;48.176;16.316;2022-09-24T13:05:58;5.78;;;4.00;;
20814;SDS011;10568;48.176;16.316;2022-09-24T13:08:25;4.50;;;3.58;;
20814;SDS011;10568;48.176;16.316;2022-09-24T13:11:00;4.85;;;3.88;;
20814;SDS011;10568;48.176;16.316;2022-09-24T13:13:34;3.97;;;3.53;;
20814;SDS011;10568;48.176;16.316;2022-09-24T13:18:50;3.85;;;3.45;;
20814;SDS011;10568;48.176;16.316;2022-09-24T13:21:23;4.55;;;3.80;;
20814;SDS011;10568;48.176;16.316;2022-09-24T13:23:51;4.78;;;3.55;;
20814;SDS011;10568;48.176;16.316;2022-09-24T13:26:31;4.05;;;3.50;;
20814;SDS011;10568;48.176;16.316;2022-09-24T13:28:59;4.50;;;3.55;;
20814;SDS011;10568;48.176;16.316;2022-09-24T13:33:52;4.22;;;3.50;;
20814;SDS011;10568;48.176;16.316;2022-09-24T13:36:42;5.40;;;3.63;;
20814;SDS011;10568;48.176;16.316;2022-09-24T13:42:18;4.13;;;3.40;;
20814;SDS011;10568;48.176;16.316;2022-09-24T13:45:05;4.28;;;3.35;;
20814;SDS011;10568;48.176;16.316;2022-09-24T13:47:46;4.63;;;3.22;;
20814;SDS011;10568;48.176;16.316;2022-09-24T13:50:37;4.60;;;3.17;;
20814;SDS011;10568;48.176;16.316;2022-09-24T13:53:14;4.70;;;2.92;;
20814;SDS011;10568;48.176;16.316;2022-09-24T13:55:51;4.00;;;3.30;;
20814;SDS011;10568;48.176;16.316;2022-09-24T13:58:25;4.13;;;3.30;;
20814;SDS011;10568;48.176;16.316;2022-09-24T14:00:54;3.95;;;2.60;;
20814;SDS011;10568;48.176;16.316;2022-09-24T14:03:29;2.70;;;2.50;;
20814;SDS011;10568;48.176;16.316;2022-09-24T14:05:57;3.28;;;2.55;;
20814;SDS011;10568;48.176;16.316;2022-09-24T14:08:24;4.05;;;2.83;;
20814;SDS011;10568;48.176;16.316;2022-09-24T14:11:11;3.20;;;2.50;;
20814;SDS011;10568;48.176;16.316;2022-09-24T14:13:45;2.33;;;1.83;;
20814;SDS011;10568;48.176;16.316;2022-09-24T14:16:13;3.08;;;2.20;;
20814;SDS011;10568;48.176;16.316;2022-09-24T14:18:45;2.78;;;2.50;;
20814;SDS011;10568;48.176;16.316;2022-09-24T14:23:42;2.40;;;2.07;;
20814;SDS011;10568;48.176;16.316;2022-09-24T14:26:30;3.83;;;2.30;;
20814;SDS011;10568;48.176;16.316;2022-09-24T14:29:13;2.73;;;2.10;;
20814;SDS011;10568;48.176;16.316;2022-09-24T14:31:53;6.20;;;2.23;;
20814;SDS011;10568;48.176;16.316;2022-09-24T14:36:54;3.47;;;2.43;;
20814;SDS011;10568;48.176;16.316;2022-09-24T14:39:23;2.50;;;2.23;;
20814;SDS011;10568;48.176;16.316;2022-09-24T14:41:52;3.63;;;2.40;;
20814;SDS011;10568;48.176;16.316;2022-09-24T14:44:26;2.80;;;2.03;;
20814;SDS011;10568;48.176;16.316;2022-09-24T14:46:55;4.23;;;2.03;;
20814;SDS011;10568;48.176;16.316;2022-09-24T14:49:27;4.17;;;2.30;;
20814;SDS011;10568;48.176;16.316;2022-09-24T14:51:56;3.10;;;2.10;;
20814;SDS011;10568;48.176;16.316;2022-09-24T14:57:22;3.77;;;2.60;;
20814;SDS011;10568;48.176;16.316;2022-09-24T14:59:49;4.93;;;2.70;;
20814;SDS011;10568;48.176;16.316;2022-09-24T15:02:20;4.67;;;2.10;;
20814;SDS011;10568;48.176;16.316;2022-09-24T15:04:51;15.43;;;6.00;;
20814;SDS011;10568;48.176;16.316;2022-09-24T15:07:26;59.73;;;16.93;;
20814;SDS011;10568;48.176;16.316;2022-09-24T15:09:54;11.73;;;4.03;;
20814;SDS011;10568;48.176;16.316;2022-09-24T15:12:25;11.17;;;5.03;;
20814;SDS011;10568;48.176;16.316;2022-09-24T15:14:56;3.23;;;2.37;;
20814;SDS011;10568;48.176;16.316;2022-09-24T15:17:31;6.57;;;3.30;;
20814;SDS011;10568;48.176;16.316;2022-09-24T15:19:58;5.93;;;3.30;;
20814;SDS011;10568;48.176;16.316;2022-09-24T15:22:25;4.93;;;2.60;;
20814;SDS011;10568;48.176;16.316;2022-09-24T15:24:55;4.87;;;2.63;;
20814;SDS011;10568;48.176;16.316;2022-09-24T15:27:29;2.23;;;1.87;;
20814;SDS011;10568;48.176;16.316;2022-09-24T15:29:57;3.93;;;2.03;;
20814;SDS011;10568;48.176;16.316;2022-09-24T15:32:25;2.70;;;2.00;;
20814;SDS011;10568;48.176;16.316;2022-09-24T15:37:40;2.30;;;1.80;;
20814;SDS011;10568;48.176;16.316;2022-09-24T15:40:08;2.83;;;1.97;;
20814;SDS011;10568;48.176;16.316;2022-09-24T15:42:41;3.10;;;2.40;;
20814;SDS011;10568;48.176;16.316;2022-09-24T15:45:17;4.40;;;2.43;;
20814;SDS011;10568;48.176;16.316;2022-09-24T15:47:45;2.83;;;2.07;;
20814;SDS011;10568;48.176;16.316;2022-09-24T15:50:12;2.80;;;2.07;;
20814;SDS011;10568;48.176;16.316;2022-09-24T15:52:49;3.43;;;2.40;;
20814;SDS011;10568;48.176;16.316;2022-09-24T15:55:22;3.07;;;2.00;;
20814;SDS011;10568;48.176;16.316;2022-09-24T15:57:48;7.87;;;2.20;;
20814;SDS011;10568;48.176;16.316;2022-09-24T16:00:15;2.80;;;2.00;;
20814;SDS011;10568;48.176;16.316;2022-09-24T16:02:43;2.70;;;2.00;;
20814;SDS011;10568;48.176;16.316;2022-09-24T16:05:12;3.80;;;2.30;;
20814;SDS011;10568;48.176;16.316;2022-09-24T16:07:38;2.57;;;2.17;;
20814;SDS011;10568;48.176;16.316;2022-09-24T16:10:05;3.40;;;2.20;;
20814;SDS011;10568;48.176;16.316;2022-09-24T16:12:31;3.83;;;2.10;;
20814;SDS011;10568;48.176;16.316;2022-09-24T16:14:57;3.80;;;2.30;;
20814;SDS011;10568;48.176;16.316;2022-09-24T16:17:24;3.47;;;2.37;;
20814;SDS011;10568;48.176;16.316;2022-09-24T16:19:51;3.63;;;2.20;;
20814;SDS011;10568;48.176;16.316;2022-09-24T16:22:16;3.00;;;2.23;;
20814;SDS011;10568;48.176;16.316;2022-09-24T16:24:42;3.53;;;2.13;;
20814;SDS011;10568;48.176;16.316;2022-09-24T16:27:08;3.97;;;2.30;;
20814;SDS011;10568;48.176;16.316;2022-09-24T16:29:34;3.17;;;2.40;;
20814;SDS011;10568;48.176;16.316;2022-09-24T16:32:00;3.93;;;2.30;;
20814;SDS011;10568;48.176;16.316;2022-09-24T16:34:26;8.37;;;2.13;;
20814;SDS011;10568;48.176;16.316;2022-09-24T16:36:53;3.77;;;2.10;;
20814;SDS011;10568;48.176;16.316;2022-09-24T16:39:18;3.10;;;2.07;;
20814;SDS011;10568;48.176;16.316;2022-09-24T16:41:48;3.10;;;2.47;;
20814;SDS011;10568;48.176;16.316;2022-09-24T16:44:14;3.17;;;2.53;;
20814;SDS011;10568;48.176;16.316;2022-09-24T16:46:41;4.27;;;2.60;;
20814;SDS011;10568;48.176;16.316;2022-09-24T16:49:07;3.37;;;2.10;;
20814;SDS011;10568;48.176;16.316;2022-09-24T16:51:33;4.47;;;2.80;;
20814;SDS011;10568;48.176;16.316;2022-09-24T16:53:59;4.13;;;2.40;;
20814;SDS011;10568;48.176;16.316;2022-09-24T16:56:24;3.00;;;2.40;;
20814;SDS011;10568;48.176;16.316;2022-09-24T16:58:50;6.00;;;2.87;;
20814;SDS011;10568;48.176;16.316;2022-09-24T17:01:17;3.80;;;2.20;;
20814;SDS011;10568;48.176;16.316;2022-09-24T17:03:52;3.73;;;2.53;;
20814;SDS011;10568;48.176;16.316;2022-09-24T17:06:19;3.87;;;2.70;;
20814;SDS011;10568;48.176;16.316;2022-09-24T17:08:48;4.13;;;2.60;;
20814;SDS011;10568;48.176;16.316;2022-09-24T17:11:33;3.63;;;2.77;;
20814;SDS011;10568;48.176;16.316;2022-09-24T17:13:59;4.67;;;2.60;;
20814;SDS011;10568;48.176;16.316;2022-09-24T17:16:25;4.80;;;2.73;;